sensor_id;sensor_type;location;lat;lon;timestamp;P1;durP1;ratioP1;P2;durP2;ratioP2
10410;SDS011;5251;52.112;8.606;2022-11-15T00:01:35;5.85;;;4.90;;
10410;SDS011;5251;52.112;8.606;2022-11-15T00:04:02;5.20;;;4.70;;
10410;SDS011;5251;52.112;8.606;2022-11-15T00:06:28;5.38;;;4.80;;
10410;SDS011;5251;52.112;8.606;2022-11-15T00:08:54;9.07;;;4.68;;
10410;SDS011;5251;52.112;8.606;2022-11-15T00:11:22;5.65;;;4.78;;
10410;SDS011;5251;52.112;8.606;2022-11-15T00:13:48;6.63;;;4.50;;
10410;SDS011;5251;52.112;8.606;2022-11-15T00:16:13;6.15;;;4.32;;
10410;SDS011;5251;52.112;8.606;2022-11-15T00:18:39;5.78;;;4.63;;
10410;SDS011;5251;52.112;8.606;2022-11-15T00:21:06;5.38;;;4.47;;
10410;SDS011;5251;52.112;8.606;2022-11-15T00:23:34;5.13;;;4.20;;
10410;SDS011;5251;52.112;8.606;2022-11-15T00:25:59;4.53;;;4.13;;
10410;SDS011;5251;52.112;8.606;2022-11-15T00:28:25;5.40;;;4.43;;
10410;SDS011;5251;52.112;8.606;2022-11-15T00:30:51;5.50;;;4.55;;
10410;SDS011;5251;52.112;8.606;2022-11-15T00:33:17;5.93;;;4.65;;
10410;SDS011;5251;52.112;8.606;2022-11-15T00:35:42;7.25;;;4.85;;
10410;SDS011;5251;52.112;8.606;2022-11-15T00:38:08;6.50;;;4.78;;
10410;SDS011;5251;52.112;8.606;2022-11-15T00:40:34;5.53;;;5.00;;
10410;SDS011;5251;52.112;8.606;2022-11-15T00:42:59;6.28;;;4.88;;
10410;SDS011;5251;52.112;8.606;2022-11-15T00:45:25;5.13;;;4.43;;
10410;SDS011;5251;52.112;8.606;2022-11-15T00:47:51;6.97;;;4.70;;
10410;SDS011;5251;52.112;8.606;2022-11-15T00:50:17;5.35;;;4.55;;
10410;SDS011;5251;52.112;8.606;2022-11-15T00:52:43;5.18;;;4.68;;
10410;SDS011;5251;52.112;8.606;2022-11-15T00:55:13;5.97;;;4.70;;
10410;SDS011;5251;52.112;8.606;2022-11-15T00:57:40;5.07;;;4.50;;
10410;SDS011;5251;52.112;8.606;2022-11-15T01:00:06;5.15;;;4.65;;
10410;SDS011;5251;52.112;8.606;2022-11-15T01:02:32;7.15;;;4.88;;
10410;SDS011;5251;52.112;8.606;2022-11-15T01:04:57;6.35;;;4.93;;
10410;SDS011;5251;52.112;8.606;2022-11-15T01:07:23;6.40;;;4.55;;
10410;SDS011;5251;52.112;8.606;2022-11-15T01:09:49;5.30;;;4.78;;
10410;SDS011;5251;52.112;8.606;2022-11-15T01:12:14;5.03;;;4.57;;
10410;SDS011;5251;52.112;8.606;2022-11-15T01:14:40;6.55;;;4.55;;
10410;SDS011;5251;52.112;8.606;2022-11-15T01:17:05;6.05;;;4.90;;
10410;SDS011;5251;52.112;8.606;2022-11-15T01:19:31;5.40;;;4.75;;
10410;SDS011;5251;52.112;8.606;2022-11-15T01:21:56;5.35;;;4.40;;
10410;SDS011;5251;52.112;8.606;2022-11-15T01:24:22;7.28;;;4.72;;
10410;SDS011;5251;52.112;8.606;2022-11-15T01:26:48;6.90;;;4.75;;
10410;SDS011;5251;52.112;8.606;2022-11-15T01:29:13;6.47;;;4.72;;
10410;SDS011;5251;52.112;8.606;2022-11-15T01:31:39;6.13;;;4.82;;
10410;SDS011;5251;52.112;8.606;2022-11-15T01:34:04;6.10;;;4.93;;
10410;SDS011;5251;52.112;8.606;2022-11-15T01:36:30;6.47;;;4.60;;
10410;SDS011;5251;52.112;8.606;2022-11-15T01:38:56;6.72;;;5.40;;
10410;SDS011;5251;52.112;8.606;2022-11-15T01:41:24;5.95;;;4.95;;
10410;SDS011;5251;52.112;8.606;2022-11-15T01:44:30;5.45;;;4.90;;
10410;SDS011;5251;52.112;8.606;2022-11-15T01:46:58;6.38;;;4.70;;
10410;SDS011;5251;52.112;8.606;2022-11-15T01:49:26;5.43;;;4.35;;
10410;SDS011;5251;52.112;8.606;2022-11-15T01:51:54;5.65;;;4.93;;
10410;SDS011;5251;52.112;8.606;2022-11-15T01:54:21;5.80;;;4.80;;
10410;SDS011;5251;52.112;8.606;2022-11-15T01:56:59;6.10;;;4.95;;
10410;SDS011;5251;52.112;8.606;2022-11-15T01:59:32;5.72;;;4.75;;
10410;SDS011;5251;52.112;8.606;2022-11-15T02:01:58;6.28;;;5.18;;
10410;SDS011;5251;52.112;8.606;2022-11-15T02:04:25;7.00;;;5.18;;
10410;SDS011;5251;52.112;8.606;2022-11-15T02:06:52;6.00;;;4.88;;
10410;SDS011;5251;52.112;8.606;2022-11-15T02:09:18;6.05;;;4.72;;
10410;SDS011;5251;52.112;8.606;2022-11-15T02:11:44;5.70;;;4.85;;
10410;SDS011;5251;52.112;8.606;2022-11-15T02:14:11;6.22;;;5.25;;
10410;SDS011;5251;52.112;8.606;2022-11-15T02:25:07;6.22;;;5.22;;
10410;SDS011;5251;52.112;8.606;2022-11-15T02:27:53;5.78;;;4.80;;
10410;SDS011;5251;52.112;8.606;2022-11-15T02:33:13;7.25;;;5.65;;
10410;SDS011;5251;52.112;8.606;2022-11-15T02:36:00;7.47;;;5.22;;
10410;SDS011;5251;52.112;8.606;2022-11-15T02:41:20;6.80;;;4.97;;
10410;SDS011;5251;52.112;8.606;2022-11-15T02:43:56;7.32;;;5.38;;
10410;SDS011;5251;52.112;8.606;2022-11-15T02:46:33;6.90;;;5.50;;
10410;SDS011;5251;52.112;8.606;2022-11-15T02:49:22;5.85;;;5.25;;
10410;SDS011;5251;52.112;8.606;2022-11-15T02:51:51;7.82;;;5.70;;
10410;SDS011;5251;52.112;8.606;2022-11-15T02:54:21;6.47;;;5.50;;
10410;SDS011;5251;52.112;8.606;2022-11-15T02:56:49;6.28;;;5.30;;
10410;SDS011;5251;52.112;8.606;2022-11-15T03:04:56;7.72;;;5.22;;
10410;SDS011;5251;52.112;8.606;2022-11-15T03:07:32;7.45;;;5.72;;
10410;SDS011;5251;52.112;8.606;2022-11-15T03:10:12;7.10;;;5.70;;
10410;SDS011;5251;52.112;8.606;2022-11-15T03:15:38;6.75;;;5.63;;
10410;SDS011;5251;52.112;8.606;2022-11-15T03:18:11;11.85;;;6.03;;
10410;SDS011;5251;52.112;8.606;2022-11-15T03:20:44;8.27;;;5.90;;
10410;SDS011;5251;52.112;8.606;2022-11-15T03:23:12;7.63;;;6.07;;
10410;SDS011;5251;52.112;8.606;2022-11-15T03:25:40;8.73;;;6.43;;
10410;SDS011;5251;52.112;8.606;2022-11-15T03:28:11;7.63;;;6.20;;
10410;SDS011;5251;52.112;8.606;2022-11-15T03:30:40;8.38;;;6.18;;
10410;SDS011;5251;52.112;8.606;2022-11-15T03:33:07;10.75;;;6.22;;
10410;SDS011;5251;52.112;8.606;2022-11-15T03:35:38;11.85;;;5.85;;
10410;SDS011;5251;52.112;8.606;2022-11-15T03:38:17;8.38;;;6.68;;
10410;SDS011;5251;52.112;8.606;2022-11-15T03:40:56;7.57;;;6.63;;
10410;SDS011;5251;52.112;8.606;2022-11-15T03:46:07;9.43;;;6.15;;
10410;SDS011;5251;52.112;8.606;2022-11-15T03:48:46;7.63;;;6.35;;
10410;SDS011;5251;52.112;8.606;2022-11-15T03:51:15;8.10;;;6.07;;
10410;SDS011;5251;52.112;8.606;2022-11-15T03:53:41;6.80;;;5.88;;
10410;SDS011;5251;52.112;8.606;2022-11-15T03:56:07;10.18;;;6.85;;
10410;SDS011;5251;52.112;8.606;2022-11-15T03:58:32;6.75;;;5.82;;
10410;SDS011;5251;52.112;8.606;2022-11-15T04:00:58;9.73;;;6.90;;
10410;SDS011;5251;52.112;8.606;2022-11-15T04:03:24;11.00;;;7.75;;
10410;SDS011;5251;52.112;8.606;2022-11-15T04:05:50;10.20;;;7.10;;
10410;SDS011;5251;52.112;8.606;2022-11-15T04:08:16;8.02;;;6.50;;
10410;SDS011;5251;52.112;8.606;2022-11-15T04:10:41;9.32;;;7.13;;
10410;SDS011;5251;52.112;8.606;2022-11-15T04:13:07;9.65;;;6.97;;
10410;SDS011;5251;52.112;8.606;2022-11-15T04:15:33;7.53;;;6.13;;
10410;SDS011;5251;52.112;8.606;2022-11-15T04:17:58;9.18;;;7.13;;
10410;SDS011;5251;52.112;8.606;2022-11-15T04:23:16;8.65;;;7.10;;
10410;SDS011;5251;52.112;8.606;2022-11-15T04:26:06;9.27;;;7.13;;
10410;SDS011;5251;52.112;8.606;2022-11-15T04:28:42;9.55;;;7.22;;
10410;SDS011;5251;52.112;8.606;2022-11-15T04:31:27;9.60;;;7.15;;
10410;SDS011;5251;52.112;8.606;2022-11-15T04:33:52;10.15;;;7.47;;
10410;SDS011;5251;52.112;8.606;2022-11-15T04:36:18;8.55;;;7.18;;
10410;SDS011;5251;52.112;8.606;2022-11-15T04:39:03;8.52;;;7.40;;
10410;SDS011;5251;52.112;8.606;2022-11-15T04:41:29;8.93;;;7.50;;
10410;SDS011;5251;52.112;8.606;2022-11-15T04:43:54;8.93;;;7.05;;
10410;SDS011;5251;52.112;8.606;2022-11-15T04:46:20;9.25;;;7.75;;
10410;SDS011;5251;52.112;8.606;2022-11-15T04:48:47;9.30;;;7.60;;
10410;SDS011;5251;52.112;8.606;2022-11-15T04:51:13;8.07;;;7.28;;
10410;SDS011;5251;52.112;8.606;2022-11-15T04:53:38;7.60;;;6.80;;
10410;SDS011;5251;52.112;8.606;2022-11-15T04:56:04;10.48;;;7.47;;
10410;SDS011;5251;52.112;8.606;2022-11-15T04:58:29;7.80;;;7.00;;
10410;SDS011;5251;52.112;8.606;2022-11-15T05:00:55;10.05;;;7.47;;
10410;SDS011;5251;52.112;8.606;2022-11-15T05:03:21;9.27;;;7.53;;
10410;SDS011;5251;52.112;8.606;2022-11-15T05:06:05;9.45;;;7.70;;
10410;SDS011;5251;52.112;8.606;2022-11-15T05:08:31;9.80;;;7.57;;
10410;SDS011;5251;52.112;8.606;2022-11-15T05:10:57;8.02;;;7.05;;
10410;SDS011;5251;52.112;8.606;2022-11-15T05:13:22;7.68;;;6.80;;
10410;SDS011;5251;52.112;8.606;2022-11-15T05:15:48;9.20;;;7.10;;
10410;SDS011;5251;52.112;8.606;2022-11-15T05:18:13;8.35;;;6.93;;
10410;SDS011;5251;52.112;8.606;2022-11-15T05:20:39;8.55;;;7.40;;
10410;SDS011;5251;52.112;8.606;2022-11-15T05:23:05;7.88;;;7.03;;
10410;SDS011;5251;52.112;8.606;2022-11-15T05:25:30;9.88;;;7.68;;
10410;SDS011;5251;52.112;8.606;2022-11-15T05:27:56;9.35;;;7.38;;
10410;SDS011;5251;52.112;8.606;2022-11-15T05:30:22;9.73;;;7.03;;
10410;SDS011;5251;52.112;8.606;2022-11-15T05:32:48;11.63;;;7.90;;
10410;SDS011;5251;52.112;8.606;2022-11-15T05:35:29;8.00;;;6.70;;
10410;SDS011;5251;52.112;8.606;2022-11-15T05:37:58;9.50;;;7.32;;
10410;SDS011;5251;52.112;8.606;2022-11-15T05:40:24;7.55;;;6.22;;
10410;SDS011;5251;52.112;8.606;2022-11-15T05:42:50;9.77;;;6.80;;
10410;SDS011;5251;52.112;8.606;2022-11-15T05:45:16;10.43;;;6.75;;
10410;SDS011;5251;52.112;8.606;2022-11-15T05:47:42;9.70;;;6.85;;
10410;SDS011;5251;52.112;8.606;2022-11-15T05:50:11;8.05;;;6.75;;
10410;SDS011;5251;52.112;8.606;2022-11-15T05:52:39;8.20;;;6.70;;
10410;SDS011;5251;52.112;8.606;2022-11-15T05:55:05;8.68;;;6.43;;
10410;SDS011;5251;52.112;8.606;2022-11-15T05:57:33;8.55;;;6.70;;
10410;SDS011;5251;52.112;8.606;2022-11-15T05:59:59;8.38;;;6.80;;
10410;SDS011;5251;52.112;8.606;2022-11-15T06:02:24;9.27;;;7.30;;
10410;SDS011;5251;52.112;8.606;2022-11-15T06:04:50;7.97;;;6.82;;
10410;SDS011;5251;52.112;8.606;2022-11-15T06:07:16;8.10;;;6.25;;
10410;SDS011;5251;52.112;8.606;2022-11-15T06:09:41;7.20;;;6.50;;
10410;SDS011;5251;52.112;8.606;2022-11-15T06:12:07;7.60;;;6.40;;
10410;SDS011;5251;52.112;8.606;2022-11-15T06:14:32;7.18;;;6.18;;
10410;SDS011;5251;52.112;8.606;2022-11-15T06:16:58;6.63;;;5.80;;
10410;SDS011;5251;52.112;8.606;2022-11-15T06:19:23;7.20;;;6.25;;
10410;SDS011;5251;52.112;8.606;2022-11-15T06:21:49;7.13;;;6.43;;
10410;SDS011;5251;52.112;8.606;2022-11-15T06:24:14;8.55;;;6.80;;
10410;SDS011;5251;52.112;8.606;2022-11-15T06:26:40;7.32;;;6.10;;
10410;SDS011;5251;52.112;8.606;2022-11-15T06:29:06;8.40;;;6.20;;
10410;SDS011;5251;52.112;8.606;2022-11-15T06:31:32;8.75;;;5.95;;
10410;SDS011;5251;52.112;8.606;2022-11-15T06:33:58;7.00;;;6.15;;
10410;SDS011;5251;52.112;8.606;2022-11-15T06:36:24;7.63;;;6.20;;
10410;SDS011;5251;52.112;8.606;2022-11-15T06:38:50;7.53;;;5.80;;
10410;SDS011;5251;52.112;8.606;2022-11-15T06:41:15;7.32;;;6.07;;
10410;SDS011;5251;52.112;8.606;2022-11-15T06:43:42;6.95;;;5.97;;
10410;SDS011;5251;52.112;8.606;2022-11-15T06:46:08;8.63;;;6.80;;
10410;SDS011;5251;52.112;8.606;2022-11-15T06:48:34;8.38;;;6.88;;
10410;SDS011;5251;52.112;8.606;2022-11-15T06:51:01;9.55;;;6.15;;
10410;SDS011;5251;52.112;8.606;2022-11-15T06:53:28;7.20;;;6.05;;
10410;SDS011;5251;52.112;8.606;2022-11-15T06:55:57;8.73;;;5.78;;
10410;SDS011;5251;52.112;8.606;2022-11-15T06:58:25;9.27;;;6.30;;
10410;SDS011;5251;52.112;8.606;2022-11-15T07:00:51;7.90;;;5.88;;
10410;SDS011;5251;52.112;8.606;2022-11-15T07:03:16;6.75;;;5.68;;
10410;SDS011;5251;52.112;8.606;2022-11-15T07:05:42;6.95;;;5.88;;
10410;SDS011;5251;52.112;8.606;2022-11-15T07:08:14;6.78;;;5.68;;
10410;SDS011;5251;52.112;8.606;2022-11-15T07:10:40;7.90;;;6.18;;
10410;SDS011;5251;52.112;8.606;2022-11-15T07:13:06;5.90;;;5.35;;
10410;SDS011;5251;52.112;8.606;2022-11-15T07:15:31;6.78;;;5.30;;
10410;SDS011;5251;52.112;8.606;2022-11-15T07:18:00;5.85;;;5.00;;
10410;SDS011;5251;52.112;8.606;2022-11-15T07:20:26;7.20;;;5.53;;
10410;SDS011;5251;52.112;8.606;2022-11-15T07:22:55;7.63;;;5.45;;
10410;SDS011;5251;52.112;8.606;2022-11-15T07:25:25;6.60;;;5.40;;
10410;SDS011;5251;52.112;8.606;2022-11-15T07:27:54;6.53;;;5.68;;
10410;SDS011;5251;52.112;8.606;2022-11-15T07:30:21;7.72;;;5.57;;
10410;SDS011;5251;52.112;8.606;2022-11-15T07:32:47;7.70;;;5.32;;
10410;SDS011;5251;52.112;8.606;2022-11-15T07:35:16;5.85;;;5.10;;
10410;SDS011;5251;52.112;8.606;2022-11-15T07:37:42;5.40;;;4.90;;
10410;SDS011;5251;52.112;8.606;2022-11-15T07:40:08;5.97;;;4.80;;
10410;SDS011;5251;52.112;8.606;2022-11-15T07:42:34;5.25;;;4.75;;
10410;SDS011;5251;52.112;8.606;2022-11-15T07:45:18;5.32;;;4.53;;
10410;SDS011;5251;52.112;8.606;2022-11-15T07:47:45;7.32;;;4.80;;
10410;SDS011;5251;52.112;8.606;2022-11-15T07:50:11;5.40;;;4.65;;
10410;SDS011;5251;52.112;8.606;2022-11-15T07:52:37;5.88;;;4.50;;
10410;SDS011;5251;52.112;8.606;2022-11-15T07:55:03;5.15;;;4.47;;
10410;SDS011;5251;52.112;8.606;2022-11-15T07:57:29;5.82;;;4.30;;
10410;SDS011;5251;52.112;8.606;2022-11-15T07:59:55;4.85;;;4.22;;
10410;SDS011;5251;52.112;8.606;2022-11-15T08:02:20;5.38;;;4.38;;
10410;SDS011;5251;52.112;8.606;2022-11-15T08:04:46;5.00;;;4.22;;
10410;SDS011;5251;52.112;8.606;2022-11-15T08:07:11;5.60;;;3.80;;
10410;SDS011;5251;52.112;8.606;2022-11-15T08:09:37;5.72;;;3.95;;
10410;SDS011;5251;52.112;8.606;2022-11-15T08:12:03;4.43;;;3.92;;
10410;SDS011;5251;52.112;8.606;2022-11-15T08:14:28;4.50;;;4.07;;
10410;SDS011;5251;52.112;8.606;2022-11-15T08:16:54;4.95;;;4.30;;
10410;SDS011;5251;52.112;8.606;2022-11-15T08:19:20;4.25;;;3.85;;
10410;SDS011;5251;52.112;8.606;2022-11-15T08:21:45;4.65;;;4.03;;
10410;SDS011;5251;52.112;8.606;2022-11-15T08:24:11;4.72;;;3.85;;
10410;SDS011;5251;52.112;8.606;2022-11-15T08:26:37;4.32;;;3.90;;
10410;SDS011;5251;52.112;8.606;2022-11-15T08:29:03;11.38;;;9.07;;
10410;SDS011;5251;52.112;8.606;2022-11-15T08:31:28;16.50;;;12.88;;
10410;SDS011;5251;52.112;8.606;2022-11-15T08:33:54;8.65;;;7.40;;
10410;SDS011;5251;52.112;8.606;2022-11-15T08:36:20;5.65;;;5.07;;
10410;SDS011;5251;52.112;8.606;2022-11-15T08:38:45;4.18;;;3.78;;
10410;SDS011;5251;52.112;8.606;2022-11-15T08:41:13;6.30;;;4.75;;
10410;SDS011;5251;52.112;8.606;2022-11-15T08:43:42;6.28;;;5.68;;
10410;SDS011;5251;52.112;8.606;2022-11-15T08:46:09;4.13;;;3.70;;
10410;SDS011;5251;52.112;8.606;2022-11-15T08:48:37;3.28;;;2.70;;
10410;SDS011;5251;52.112;8.606;2022-11-15T08:51:03;6.15;;;2.92;;
10410;SDS011;5251;52.112;8.606;2022-11-15T08:53:29;2.90;;;2.60;;
10410;SDS011;5251;52.112;8.606;2022-11-15T08:55:54;2.40;;;2.15;;
10410;SDS011;5251;52.112;8.606;2022-11-15T08:58:20;3.00;;;2.25;;
10410;SDS011;5251;52.112;8.606;2022-11-15T09:00:45;2.50;;;2.30;;
10410;SDS011;5251;52.112;8.606;2022-11-15T09:03:11;3.08;;;2.38;;
10410;SDS011;5251;52.112;8.606;2022-11-15T09:05:37;2.42;;;2.22;;
10410;SDS011;5251;52.112;8.606;2022-11-15T09:08:03;2.58;;;2.30;;
10410;SDS011;5251;52.112;8.606;2022-11-15T09:10:29;2.65;;;2.13;;
10410;SDS011;5251;52.112;8.606;2022-11-15T09:12:56;2.70;;;2.17;;
10410;SDS011;5251;52.112;8.606;2022-11-15T09:15:22;2.40;;;2.20;;
10410;SDS011;5251;52.112;8.606;2022-11-15T09:17:47;2.55;;;2.08;;
10410;SDS011;5251;52.112;8.606;2022-11-15T09:20:13;1.75;;;1.60;;
10410;SDS011;5251;52.112;8.606;2022-11-15T09:22:39;2.00;;;1.85;;
10410;SDS011;5251;52.112;8.606;2022-11-15T09:25:05;2.05;;;1.90;;
10410;SDS011;5251;52.112;8.606;2022-11-15T09:27:31;2.30;;;1.75;;
10410;SDS011;5251;52.112;8.606;2022-11-15T09:29:57;1.88;;;1.48;;
10410;SDS011;5251;52.112;8.606;2022-11-15T09:32:23;1.48;;;1.38;;
10410;SDS011;5251;52.112;8.606;2022-11-15T09:34:49;2.65;;;1.70;;
10410;SDS011;5251;52.112;8.606;2022-11-15T09:37:15;2.00;;;1.50;;
10410;SDS011;5251;52.112;8.606;2022-11-15T09:39:41;2.85;;;1.70;;
10410;SDS011;5251;52.112;8.606;2022-11-15T09:45:15;1.98;;;1.58;;
10410;SDS011;5251;52.112;8.606;2022-11-15T09:50:36;2.22;;;2.03;;
10410;SDS011;5251;52.112;8.606;2022-11-15T09:53:18;3.40;;;1.80;;
10410;SDS011;5251;52.112;8.606;2022-11-15T09:55:53;2.03;;;1.80;;
10410;SDS011;5251;52.112;8.606;2022-11-15T09:58:36;3.72;;;1.80;;
10410;SDS011;5251;52.112;8.606;2022-11-15T10:01:12;2.80;;;2.00;;
10410;SDS011;5251;52.112;8.606;2022-11-15T10:03:44;1.77;;;1.40;;
10410;SDS011;5251;52.112;8.606;2022-11-15T10:06:15;1.50;;;1.40;;
10410;SDS011;5251;52.112;8.606;2022-11-15T10:11:28;2.33;;;1.58;;
10410;SDS011;5251;52.112;8.606;2022-11-15T10:13:59;1.67;;;1.40;;
10410;SDS011;5251;52.112;8.606;2022-11-15T10:27:34;1.50;;;1.40;;
10410;SDS011;5251;52.112;8.606;2022-11-15T10:30:00;1.50;;;1.40;;
10410;SDS011;5251;52.112;8.606;2022-11-15T10:32:28;1.48;;;1.23;;
10410;SDS011;5251;52.112;8.606;2022-11-15T10:34:57;1.48;;;1.30;;
10410;SDS011;5251;52.112;8.606;2022-11-15T10:37:30;1.98;;;1.27;;
10410;SDS011;5251;52.112;8.606;2022-11-15T10:40:02;1.35;;;1.20;;
10410;SDS011;5251;52.112;8.606;2022-11-15T10:42:39;1.55;;;1.38;;
10410;SDS011;5251;52.112;8.606;2022-11-15T10:45:22;1.42;;;1.27;;
10410;SDS011;5251;52.112;8.606;2022-11-15T10:47:53;1.45;;;1.20;;
10410;SDS011;5251;52.112;8.606;2022-11-15T10:50:43;1.45;;;1.10;;
10410;SDS011;5251;52.112;8.606;2022-11-15T10:53:26;1.55;;;1.20;;
10410;SDS011;5251;52.112;8.606;2022-11-15T10:56:13;1.45;;;1.13;;
10410;SDS011;5251;52.112;8.606;2022-11-15T10:58:43;1.05;;;0.93;;
10410;SDS011;5251;52.112;8.606;2022-11-15T11:01:19;1.58;;;1.10;;
10410;SDS011;5251;52.112;8.606;2022-11-15T11:04:01;2.45;;;1.20;;
10410;SDS011;5251;52.112;8.606;2022-11-15T11:06:45;1.63;;;1.10;;
10410;SDS011;5251;52.112;8.606;2022-11-15T11:09:34;1.70;;;1.10;;
10410;SDS011;5251;52.112;8.606;2022-11-15T11:12:02;1.08;;;1.00;;
10410;SDS011;5251;52.112;8.606;2022-11-15T11:14:31;1.27;;;1.17;;
10410;SDS011;5251;52.112;8.606;2022-11-15T11:17:21;2.22;;;1.17;;
10410;SDS011;5251;52.112;8.606;2022-11-15T11:36:17;1.88;;;1.30;;
10410;SDS011;5251;52.112;8.606;2022-11-15T11:39:31;3.47;;;1.15;;
10410;SDS011;5251;52.112;8.606;2022-11-15T11:48:12;1.60;;;1.30;;
10410;SDS011;5251;52.112;8.606;2022-11-15T11:50:39;2.38;;;1.02;;
10410;SDS011;5251;52.112;8.606;2022-11-15T11:56:17;1.40;;;1.30;;
10410;SDS011;5251;52.112;8.606;2022-11-15T11:58:48;2.00;;;1.45;;
10410;SDS011;5251;52.112;8.606;2022-11-15T12:01:22;2.42;;;1.35;;
10410;SDS011;5251;52.112;8.606;2022-11-15T12:03:55;2.10;;;1.30;;
10410;SDS011;5251;52.112;8.606;2022-11-15T12:06:33;2.25;;;1.20;;
10410;SDS011;5251;52.112;8.606;2022-11-15T12:17:16;1.38;;;1.27;;
10410;SDS011;5251;52.112;8.606;2022-11-15T12:19:46;1.40;;;1.30;;
10410;SDS011;5251;52.112;8.606;2022-11-15T12:22:14;2.10;;;1.48;;
10410;SDS011;5251;52.112;8.606;2022-11-15T12:24:50;5.68;;;1.20;;
10410;SDS011;5251;52.112;8.606;2022-11-15T12:27:37;1.30;;;1.20;;
10410;SDS011;5251;52.112;8.606;2022-11-15T12:30:14;2.42;;;1.40;;
10410;SDS011;5251;52.112;8.606;2022-11-15T12:37:57;1.50;;;1.40;;
10410;SDS011;5251;52.112;8.606;2022-11-15T12:43:04;1.65;;;1.40;;
10410;SDS011;5251;52.112;8.606;2022-11-15T12:51:02;1.67;;;1.30;;
10410;SDS011;5251;52.112;8.606;2022-11-15T12:53:30;1.55;;;1.17;;
10410;SDS011;5251;52.112;8.606;2022-11-15T13:07:05;2.22;;;1.40;;
10410;SDS011;5251;52.112;8.606;2022-11-15T13:12:01;1.52;;;1.20;;
10410;SDS011;5251;52.112;8.606;2022-11-15T13:14:40;1.65;;;1.20;;
10410;SDS011;5251;52.112;8.606;2022-11-15T13:20:00;1.65;;;1.20;;
10410;SDS011;5251;52.112;8.606;2022-11-15T13:25:32;1.50;;;1.40;;
10410;SDS011;5251;52.112;8.606;2022-11-15T13:31:05;1.50;;;1.35;;
10410;SDS011;5251;52.112;8.606;2022-11-15T13:33:42;1.58;;;1.23;;
10410;SDS011;5251;52.112;8.606;2022-11-15T13:36:13;1.20;;;1.10;;
10410;SDS011;5251;52.112;8.606;2022-11-15T13:41:24;1.33;;;1.20;;
10410;SDS011;5251;52.112;8.606;2022-11-15T13:44:00;1.27;;;1.17;;
10410;SDS011;5251;52.112;8.606;2022-11-15T13:46:29;1.38;;;1.23;;
10410;SDS011;5251;52.112;8.606;2022-11-15T13:48:59;1.30;;;1.20;;
10410;SDS011;5251;52.112;8.606;2022-11-15T13:53:56;1.60;;;1.50;;
10410;SDS011;5251;52.112;8.606;2022-11-15T13:56:27;1.27;;;1.17;;
10410;SDS011;5251;52.112;8.606;2022-11-15T13:58:55;1.23;;;1.13;;
10410;SDS011;5251;52.112;8.606;2022-11-15T14:01:21;2.10;;;1.40;;
10410;SDS011;5251;52.112;8.606;2022-11-15T14:03:49;2.47;;;1.50;;
10410;SDS011;5251;52.112;8.606;2022-11-15T14:06:24;1.80;;;1.42;;
10410;SDS011;5251;52.112;8.606;2022-11-15T14:11:36;1.85;;;1.40;;
10410;SDS011;5251;52.112;8.606;2022-11-15T14:16:35;1.92;;;1.63;;
10410;SDS011;5251;52.112;8.606;2022-11-15T14:19:33;1.55;;;1.40;;
10410;SDS011;5251;52.112;8.606;2022-11-15T14:22:08;1.70;;;1.60;;
10410;SDS011;5251;52.112;8.606;2022-11-15T14:24:41;1.95;;;1.55;;
10410;SDS011;5251;52.112;8.606;2022-11-15T14:27:18;1.63;;;1.52;;
10410;SDS011;5251;52.112;8.606;2022-11-15T14:29:52;2.58;;;1.70;;
10410;SDS011;5251;52.112;8.606;2022-11-15T14:32:25;2.00;;;1.60;;
10410;SDS011;5251;52.112;8.606;2022-11-15T14:34:57;1.60;;;1.50;;
10410;SDS011;5251;52.112;8.606;2022-11-15T14:37:28;1.80;;;1.70;;
10410;SDS011;5251;52.112;8.606;2022-11-15T14:39:58;1.98;;;1.60;;
10410;SDS011;5251;52.112;8.606;2022-11-15T14:42:23;2.38;;;1.83;;
10410;SDS011;5251;52.112;8.606;2022-11-15T14:44:50;1.50;;;1.40;;
10410;SDS011;5251;52.112;8.606;2022-11-15T14:47:16;3.28;;;1.70;;
10410;SDS011;5251;52.112;8.606;2022-11-15T14:49:42;1.92;;;1.60;;
10410;SDS011;5251;52.112;8.606;2022-11-15T14:52:27;1.85;;;1.70;;
10410;SDS011;5251;52.112;8.606;2022-11-15T14:54:54;1.95;;;1.73;;
10410;SDS011;5251;52.112;8.606;2022-11-15T14:57:20;3.28;;;2.00;;
10410;SDS011;5251;52.112;8.606;2022-11-15T14:59:46;3.08;;;1.95;;
10410;SDS011;5251;52.112;8.606;2022-11-15T15:02:14;4.22;;;1.80;;
10410;SDS011;5251;52.112;8.606;2022-11-15T15:04:46;4.47;;;1.77;;
10410;SDS011;5251;52.112;8.606;2022-11-15T15:07:12;2.45;;;1.90;;
10410;SDS011;5251;52.112;8.606;2022-11-15T15:09:37;2.75;;;1.90;;
10410;SDS011;5251;52.112;8.606;2022-11-15T15:12:03;2.10;;;1.90;;
10410;SDS011;5251;52.112;8.606;2022-11-15T15:14:39;2.95;;;1.92;;
10410;SDS011;5251;52.112;8.606;2022-11-15T15:17:04;3.15;;;1.60;;
10410;SDS011;5251;52.112;8.606;2022-11-15T15:19:30;2.05;;;1.80;;
10410;SDS011;5251;52.112;8.606;2022-11-15T15:21:56;3.95;;;1.67;;
10410;SDS011;5251;52.112;8.606;2022-11-15T15:24:21;2.00;;;1.70;;
10410;SDS011;5251;52.112;8.606;2022-11-15T15:26:47;2.10;;;1.83;;
10410;SDS011;5251;52.112;8.606;2022-11-15T15:29:12;1.75;;;1.63;;
10410;SDS011;5251;52.112;8.606;2022-11-15T15:31:38;3.72;;;1.80;;
10410;SDS011;5251;52.112;8.606;2022-11-15T15:34:04;3.17;;;1.67;;
10410;SDS011;5251;52.112;8.606;2022-11-15T15:36:29;3.42;;;1.70;;
10410;SDS011;5251;52.112;8.606;2022-11-15T15:38:55;2.80;;;1.73;;
10410;SDS011;5251;52.112;8.606;2022-11-15T15:41:20;1.70;;;1.60;;
10410;SDS011;5251;52.112;8.606;2022-11-15T15:43:46;3.78;;;1.63;;
10410;SDS011;5251;52.112;8.606;2022-11-15T15:46:16;2.63;;;1.55;;
10410;SDS011;5251;52.112;8.606;2022-11-15T15:48:43;2.05;;;1.58;;
10410;SDS011;5251;52.112;8.606;2022-11-15T15:51:10;2.40;;;1.75;;
10410;SDS011;5251;52.112;8.606;2022-11-15T15:53:36;2.42;;;1.67;;
10410;SDS011;5251;52.112;8.606;2022-11-15T15:56:02;1.75;;;1.55;;
10410;SDS011;5251;52.112;8.606;2022-11-15T15:58:28;2.85;;;1.50;;
10410;SDS011;5251;52.112;8.606;2022-11-15T16:00:53;2.15;;;1.60;;
10410;SDS011;5251;52.112;8.606;2022-11-15T16:03:19;2.33;;;1.40;;
10410;SDS011;5251;52.112;8.606;2022-11-15T16:05:45;3.53;;;1.85;;
10410;SDS011;5251;52.112;8.606;2022-11-15T16:08:21;1.65;;;1.50;;
10410;SDS011;5251;52.112;8.606;2022-11-15T16:10:48;2.15;;;1.50;;
10410;SDS011;5251;52.112;8.606;2022-11-15T16:13:14;1.65;;;1.50;;
10410;SDS011;5251;52.112;8.606;2022-11-15T16:15:40;2.83;;;1.65;;
10410;SDS011;5251;52.112;8.606;2022-11-15T16:18:08;1.60;;;1.50;;
10410;SDS011;5251;52.112;8.606;2022-11-15T16:20:41;1.60;;;1.50;;
10410;SDS011;5251;52.112;8.606;2022-11-15T16:23:11;1.92;;;1.60;;
10410;SDS011;5251;52.112;8.606;2022-11-15T16:25:44;1.80;;;1.42;;
10410;SDS011;5251;52.112;8.606;2022-11-15T16:28:22;1.77;;;1.50;;
10410;SDS011;5251;52.112;8.606;2022-11-15T16:30:49;2.45;;;1.50;;
10410;SDS011;5251;52.112;8.606;2022-11-15T16:33:26;1.50;;;1.40;;
10410;SDS011;5251;52.112;8.606;2022-11-15T16:35:52;2.47;;;1.75;;
10410;SDS011;5251;52.112;8.606;2022-11-15T16:38:18;1.63;;;1.52;;
10410;SDS011;5251;52.112;8.606;2022-11-15T16:40:43;2.15;;;1.40;;
10410;SDS011;5251;52.112;8.606;2022-11-15T16:43:09;1.40;;;1.30;;
10410;SDS011;5251;52.112;8.606;2022-11-15T16:45:35;1.45;;;1.30;;
10410;SDS011;5251;52.112;8.606;2022-11-15T16:48:01;1.83;;;1.40;;
10410;SDS011;5251;52.112;8.606;2022-11-15T16:50:28;2.22;;;1.75;;
10410;SDS011;5251;52.112;8.606;2022-11-15T16:52:56;2.13;;;1.67;;
10410;SDS011;5251;52.112;8.606;2022-11-15T16:55:23;3.28;;;2.08;;
10410;SDS011;5251;52.112;8.606;2022-11-15T16:57:52;3.85;;;1.80;;
10410;SDS011;5251;52.112;8.606;2022-11-15T17:00:18;2.13;;;1.67;;
10410;SDS011;5251;52.112;8.606;2022-11-15T17:02:45;1.70;;;1.55;;
10410;SDS011;5251;52.112;8.606;2022-11-15T17:05:12;3.15;;;1.77;;
10410;SDS011;5251;52.112;8.606;2022-11-15T17:07:39;2.05;;;1.80;;
10410;SDS011;5251;52.112;8.606;2022-11-15T17:10:05;2.45;;;1.70;;
10410;SDS011;5251;52.112;8.606;2022-11-15T17:12:33;2.85;;;1.80;;
10410;SDS011;5251;52.112;8.606;2022-11-15T17:14:59;2.10;;;1.77;;
10410;SDS011;5251;52.112;8.606;2022-11-15T17:17:25;2.42;;;1.95;;
10410;SDS011;5251;52.112;8.606;2022-11-15T17:19:51;4.13;;;1.83;;